Time;durP1;ratioP1;P1;durP2;ratioP2;P2;SDS_P1;SDS_P2;PMS_P1;PMS_P2;Temp;Humidity;BMP_temperature;BMP_pressure;BME280_temperature;BME280_humidity;BME280_pressure;Samples;Min_cycle;Max_cycle;Signal;HPM_P1;HPM_P2
2023/07/14 00:00:41;;;;;;;10.75;8.70;;;;;;;16.62;100.00;101639.72;5200624;28;20032;-68
2023/07/14 00:03:18;;;;;;;11.80;8.73;;;;;;;16.59;100.00;101636.47;5197603;28;20034;-68
2023/07/14 00:05:50;;;;;;;12.10;9.23;;;;;;;16.60;100.00;101630.91;5199046;28;20222;-68
2023/07/14 00:08:21;;;;;;;11.10;8.45;;;;;;;16.48;100.00;101629.31;5195884;28;20049;-68
2023/07/14 00:10:53;;;;;;;11.20;9.23;;;;;;;16.52;100.00;101632.59;5196977;28;20068;-68
2023/07/14 00:13:24;;;;;;;10.50;8.48;;;;;;;16.46;100.00;101625.91;5203448;28;20026;-68
2023/07/14 00:15:56;;;;;;;10.00;8.40;;;;;;;16.44;100.00;101626.03;5208829;28;20463;-68
2023/07/14 00:18:27;;;;;;;11.90;8.20;;;;;;;16.51;100.00;101620.97;5203616;28;20030;-68
2023/07/14 00:20:59;;;;;;;11.05;8.25;;;;;;;16.49;100.00;101616.69;5196124;28;20031;-68
2023/07/14 00:23:31;;;;;;;11.55;8.20;;;;;;;16.36;100.00;101616.97;5196003;28;20033;-68
2023/07/14 00:26:02;;;;;;;11.25;7.30;;;;;;;16.38;100.00;101612.28;5208103;28;20494;-68
2023/07/14 00:28:34;;;;;;;12.60;7.80;;;;;;;16.30;100.00;101614.78;5204852;28;20066;-68
2023/07/14 00:31:10;;;;;;;11.43;8.48;;;;;;;16.33;100.00;101620.75;5199768;28;20741;-68
2023/07/14 00:33:43;;;;;;;11.27;7.53;;;;;;;16.35;100.00;101626.88;5201737;28;20045;-68
2023/07/14 00:36:17;;;;;;;9.63;6.97;;;;;;;16.24;100.00;101617.06;5202662;28;20044;-68
2023/07/14 00:38:48;;;;;;;10.82;8.07;;;;;;;16.38;100.00;101620.38;5206907;28;20283;-68
2023/07/14 00:41:23;;;;;;;9.32;7.70;;;;;;;16.23;100.00;101619.88;5203575;28;20738;-68
2023/07/14 00:43:55;;;;;;;9.77;7.40;;;;;;;16.13;100.00;101608.19;5206162;28;20072;-68
2023/07/14 00:46:29;;;;;;;8.55;7.45;;;;;;;16.08;100.00;101606.75;5204067;28;20030;-68
2023/07/14 00:49:07;;;;;;;12.43;8.90;;;;;;;16.15;100.00;101607.09;5201686;28;20041;-68
2023/07/14 00:51:39;;;;;;;11.73;8.02;;;;;;;16.13;100.00;101611.75;5201923;28;20026;-68
2023/07/14 00:54:27;;;;;;;11.38;8.63;;;;;;;16.19;100.00;101605.00;5202898;28;20121;-68
2023/07/14 00:57:00;;;;;;;10.35;9.07;;;;;;;16.17;100.00;101601.59;5206261;28;20543;-68
2023/07/14 00:59:33;;;;;;;11.73;9.45;;;;;;;16.19;100.00;101605.00;5210730;28;20110;-69
2023/07/14 01:02:22;;;;;;;10.18;8.40;;;;;;;16.16;100.00;101611.47;5199547;28;20058;-68
2023/07/14 01:05:04;;;;;;;12.15;9.52;;;;;;;16.15;100.00;101607.09;5205652;28;20030;-68
2023/07/14 01:07:41;;;;;;;13.75;9.75;;;;;;;16.18;100.00;101606.81;5201867;28;20050;-68
2023/07/14 01:10:17;;;;;;;11.70;9.52;;;;;;;16.18;100.00;101608.66;5204147;28;20030;-68
2023/07/14 01:12:55;;;;;;;10.02;8.63;;;;;;;16.25;100.00;101605.28;5203605;28;20030;-68
2023/07/14 01:15:27;;;;;;;11.77;8.80;;;;;;;16.19;100.00;101605.00;5198478;28;20061;-68
2023/07/14 01:17:59;;;;;;;12.02;8.52;;;;;;;16.23;100.00;101601.03;5196223;28;20117;-69
2023/07/14 01:20:30;;;;;;;12.23;9.70;;;;;;;16.21;100.00;101598.47;5199639;28;20060;-68
2023/07/14 01:23:13;;;;;;;13.32;9.68;;;;;;;16.40;100.00;101595.00;5198946;28;20038;-68
2023/07/14 01:25:53;;;;;;;13.18;9.43;;;;;;;16.22;100.00;101586.72;5208519;28;20030;-68
2023/07/14 01:28:25;;;;;;;10.43;8.75;;;;;;;16.26;100.00;101581.88;5208842;28;20429;-68
2023/07/14 01:30:56;;;;;;;12.50;9.07;;;;;;;16.35;100.00;101591.00;5204760;28;20033;-68
2023/07/14 01:33:28;;;;;;;12.68;9.60;;;;;;;16.39;100.00;101589.75;5209846;28;20119;-68
2023/07/14 01:36:00;;;;;;;12.02;10.02;;;;;;;16.36;100.00;101588.19;5196440;28;20030;-68
2023/07/14 01:38:32;;;;;;;13.38;10.57;;;;;;;16.34;100.00;101592.84;5203975;28;20054;-69
2023/07/14 01:41:06;;;;;;;12.20;10.05;;;;;;;16.30;100.00;101591.44;5205901;28;20042;-69
2023/07/14 01:43:39;;;;;;;11.45;10.20;;;;;;;16.37;100.00;101580.94;5209310;28;20049;-69
2023/07/14 01:46:16;;;;;;;12.90;10.37;;;;;;;16.39;100.00;101582.50;5203682;28;20026;-69
2023/07/14 01:48:59;;;;;;;13.05;10.45;;;;;;;16.34;100.00;101583.91;5197983;28;20041;-69
2023/07/14 01:51:38;;;;;;;14.90;10.70;;;;;;;16.35;100.00;101581.06;5203809;28;20156;-69
2023/07/14 01:54:15;;;;;;;15.75;10.52;;;;;;;16.45;100.00;101578.41;5206821;28;20107;-69
2023/07/14 01:56:48;;;;;;;12.88;9.98;;;;;;;16.33;100.00;101576.81;5203846;28;20134;-69
2023/07/14 01:59:48;;;;;;;11.70;9.77;;;;;;;16.43;100.00;101575.00;5206019;28;20556;-69
2023/07/14 02:02:33;;;;;;;13.10;9.82;;;;;;;16.34;100.00;101586.59;5206554;28;20112;-69
2023/07/14 02:05:14;;;;;;;12.55;10.13;;;;;;;16.41;100.00;101587.75;5207241;28;20535;-69
2023/07/14 02:07:46;;;;;;;12.82;9.98;;;;;;;16.25;100.00;101572.97;5207552;28;20062;-68
2023/07/14 02:10:19;;;;;;;12.07;9.57;;;;;;;16.32;100.00;101567.03;5197913;28;20025;-68
2023/07/14 02:12:53;;;;;;;14.73;9.82;;;;;;;16.25;100.00;101567.59;5207350;28;20049;-68
2023/07/14 02:15:32;;;;;;;11.90;9.98;;;;;;;16.28;100.00;101566.47;5213957;28;20484;-69
2023/07/14 02:18:03;;;;;;;11.10;9.90;;;;;;;16.30;100.00;101569.88;5202494;28;20910;-69
2023/07/14 02:20:39;;;;;;;10.73;9.25;;;;;;;16.21;100.00;101560.78;5204515;28;20491;-69
2023/07/14 02:23:15;;;;;;;12.75;10.35;;;;;;;16.23;100.00;101564.19;5205615;28;20056;-68
2023/07/14 02:26:06;;;;;;;10.75;9.52;;;;;;;16.18;100.00;101561.03;5204398;28;20049;-69
2023/07/14 02:28:37;;;;;;;11.82;10.00;;;;;;;16.12;100.00;101564.28;5213356;28;20052;-69
2023/07/14 02:31:25;;;;;;;13.35;10.63;;;;;;;16.08;100.00;101566.38;5202361;28;20030;-69
2023/07/14 02:33:56;;;;;;;13.05;9.85;;;;;;;16.07;100.00;101555.78;5204649;28;20057;-68
2023/07/14 02:36:28;;;;;;;11.68;10.32;;;;;;;15.93;100.00;101556.97;5203532;28;20552;-69
2023/07/14 02:39:01;;;;;;;11.32;9.75;;;;;;;15.93;100.00;101556.97;5199076;28;21630;-68
2023/07/14 02:41:37;;;;;;;16.55;10.25;;;;;;;15.88;100.00;101559.25;5196389;28;20026;-69
2023/07/14 02:44:13;;;;;;;12.73;9.93;;;;;;;15.81;100.00;101564.28;5198629;28;20076;-69
2023/07/14 02:47:00;;;;;;;11.68;9.30;;;;;;;15.95;100.00;101559.53;5192167;28;21243;-69
2023/07/14 02:49:31;;;;;;;10.30;9.15;;;;;;;15.93;100.00;101567.72;5199841;28;20025;-69
2023/07/14 02:52:03;;;;;;;13.00;9.80;;;;;;;15.77;100.00;101564.69;5203238;28;20030;-69
2023/07/14 02:54:37;;;;;;;10.25;9.23;;;;;;;15.85;100.00;101563.03;5200702;28;20037;-69
2023/07/14 02:57:08;;;;;;;11.13;9.15;;;;;;;15.90;100.00;101561.75;5199477;28;20154;-69
2023/07/14 02:59:40;;;;;;;10.77;9.13;;;;;;;15.86;100.00;101553.13;5203881;28;20596;-69
2023/07/14 03:02:11;;;;;;;11.38;9.68;;;;;;;15.87;100.00;101554.81;5200360;28;20144;-69
2023/07/14 03:04:43;;;;;;;12.63;9.98;;;;;;;15.77;100.00;101559.31;5199369;28;20065;-68
2023/07/14 03:07:14;;;;;;;11.30;9.40;;;;;;;15.91;100.00;101555.41;5194882;28;20033;-69
2023/07/14 03:09:46;;;;;;;11.30;9.60;;;;;;;15.84;100.00;101568.56;5202997;28;20097;-69
2023/07/14 03:12:18;;;;;;;14.88;9.63;;;;;;;15.81;100.00;101560.75;5201071;28;20511;-68
2023/07/14 03:14:50;;;;;;;11.15;9.38;;;;;;;15.75;100.00;101559.44;5204485;28;20026;-69
2023/07/14 03:17:22;;;;;;;10.35;9.20;;;;;;;15.85;100.00;101549.56;5199925;28;20202;-68
2023/07/14 03:19:53;;;;;;;12.73;9.60;;;;;;;15.92;100.00;101549.91;5201877;28;20021;-69
2023/07/14 03:22:30;;;;;;;12.88;9.60;;;;;;;15.84;100.00;101547.03;5196866;28;20021;-69
2023/07/14 03:25:02;;;;;;;11.02;8.60;;;;;;;15.78;100.00;101547.56;5204520;28;20605;-69
2023/07/14 03:27:33;;;;;;;11.73;9.77;;;;;;;15.83;100.00;101546.16;5197789;28;20081;-69
2023/07/14 03:30:05;;;;;;;11.15;9.55;;;;;;;15.83;100.00;101548.00;5203296;28;20420;-69
2023/07/14 03:32:37;;;;;;;9.70;8.57;;;;;;;15.80;100.00;101541.06;5196946;28;20108;-69
2023/07/14 03:35:08;;;;;;;12.23;9.52;;;;;;;15.79;100.00;101538.50;5199213;28;20025;-68
2023/07/14 03:37:41;;;;;;;9.30;8.25;;;;;;;15.85;100.00;101546.88;5193794;28;20030;-68
2023/07/14 03:40:12;;;;;;;8.88;7.97;;;;;;;15.82;100.00;101536.41;5196606;28;20040;-68
2023/07/14 03:42:44;;;;;;;9.13;7.45;;;;;;;15.83;100.00;101537.25;5196627;28;20022;-68
2023/07/14 03:45:15;;;;;;;10.10;7.82;;;;;;;15.88;100.00;101530.47;5206741;28;20105;-68
2023/07/14 03:47:47;;;;;;;10.68;7.63;;;;;;;15.83;100.00;101532.72;5205246;28;20025;-69
2023/07/14 03:50:18;;;;;;;10.73;7.80;;;;;;;15.88;100.00;101527.78;5197073;28;20030;-69
2023/07/14 03:52:50;;;;;;;10.50;7.45;;;;;;;15.97;100.00;101527.94;5205072;28;20456;-69
2023/07/14 03:55:21;;;;;;;10.57;7.32;;;;;;;15.78;100.00;101524.22;5198753;28;20041;-69
2023/07/14 03:57:53;;;;;;;8.20;6.55;;;;;;;15.82;100.00;101528.34;5196035;28;20076;-69
2023/07/14 04:00:24;;;;;;;11.02;7.50;;;;;;;15.81;100.00;101521.22;5200255;28;20036;-68
2023/07/14 04:02:56;;;;;;;10.30;6.40;;;;;;;15.73;100.00;101523.75;5195192;28;20042;-68
2023/07/14 04:05:28;;;;;;;9.88;6.50;;;;;;;15.76;100.00;101518.13;5200569;28;20421;-68
2023/07/14 04:07:59;;;;;;;8.68;6.53;;;;;;;15.82;100.00;101517.56;5202249;28;20200;-69
2023/07/14 04:10:32;;;;;;;8.38;6.72;;;;;;;15.79;100.00;101517.81;5207157;28;20136;-69
2023/07/14 04:13:03;;;;;;;9.55;6.43;;;;;;;15.87;100.00;101520.69;5197413;28;20036;-68
2023/07/14 04:15:34;;;;;;;8.93;6.43;;;;;;;15.85;100.00;101519.97;5193574;28;20026;-69
2023/07/14 04:18:06;;;;;;;9.70;6.70;;;;;;;15.85;100.00;101522.66;5206560;28;20049;-69
2023/07/14 04:20:37;;;;;;;8.68;5.95;;;;;;;15.94;100.00;101518.31;5197310;28;21536;-69
2023/07/14 04:23:09;;;;;;;7.15;5.47;;;;;;;15.80;100.00;101513.28;5205068;28;20092;-68
2023/07/14 04:25:40;;;;;;;10.07;6.10;;;;;;;15.84;100.00;101512.91;5200215;28;20527;-69
2023/07/14 04:28:11;;;;;;;10.27;6.53;;;;;;;15.87;100.00;101515.31;5203098;28;21106;-69
2023/07/14 04:30:55;;;;;;;9.43;6.55;;;;;;;15.84;100.00;101512.91;5199332;28;20398;-69
2023/07/14 04:33:27;;;;;;;8.33;6.03;;;;;;;15.88;100.00;101519.72;5200236;28;20052;-68
2023/07/14 04:35:59;;;;;;;7.72;5.38;;;;;;;15.88;100.00;101519.72;5203155;28;20575;-69
2023/07/14 04:38:30;;;;;;;8.93;5.72;;;;;;;15.86;100.00;101510.94;5200591;28;20372;-69
2023/07/14 04:41:02;;;;;;;10.18;5.82;;;;;;;15.88;100.00;101511.63;5195433;28;20500;-69
2023/07/14 04:43:34;;;;;;;8.95;5.50;;;;;;;15.87;100.00;101509.06;5201586;28;20054;-69
2023/07/14 04:46:05;;;;;;;7.85;5.60;;;;;;;15.93;100.00;101508.53;5199647;28;20069;-69
2023/07/14 04:48:36;;;;;;;9.25;5.65;;;;;;;15.92;100.00;101514.06;5201017;28;20030;-69
2023/07/14 04:51:08;;;;;;;6.85;4.90;;;;;;;15.83;100.00;101519.25;5198782;28;20077;-69
2023/07/14 04:53:39;;;;;;;6.72;5.10;;;;;;;15.84;100.00;101515.59;5193174;28;20476;-69
2023/07/14 04:56:11;;;;;;;8.25;5.18;;;;;;;15.80;100.00;101522.22;5192656;28;20262;-69
2023/07/14 04:58:43;;;;;;;6.88;5.35;;;;;;;15.79;100.00;101528.59;5200707;28;20034;-68
2023/07/14 05:01:14;;;;;;;7.85;5.40;;;;;;;15.95;100.00;101522.69;5204660;28;20029;-69
2023/07/14 05:03:45;;;;;;;10.07;5.28;;;;;;;15.93;100.00;101524.69;5205041;28;20045;-68
2023/07/14 05:06:17;;;;;;;8.75;5.70;;;;;;;15.85;100.00;101519.13;5208005;28;20029;-69
2023/07/14 05:08:48;;;;;;;7.47;5.45;;;;;;;16.00;100.00;101519.63;5206353;28;20037;-69
2023/07/14 05:11:20;;;;;;;6.97;5.03;;;;;;;15.90;100.00;101505.25;5211266;28;20515;-69
2023/07/14 05:13:53;;;;;;;8.90;5.13;;;;;;;15.87;100.00;101512.59;5210316;28;20021;-69
2023/07/14 05:16:24;;;;;;;14.50;5.90;;;;;;;15.89;100.00;101507.09;5206965;28;20531;-69
2023/07/14 05:18:55;;;;;;;9.38;5.50;;;;;;;15.93;100.00;101507.69;5206810;28;20017;-69
2023/07/14 05:21:27;;;;;;;7.82;5.30;;;;;;;15.93;100.00;101494.22;5202647;28;20034;-69
2023/07/14 05:23:58;;;;;;;10.35;5.20;;;;;;;15.98;100.00;101495.53;5202254;28;20101;-69
2023/07/14 05:26:30;;;;;;;8.70;5.55;;;;;;;16.12;100.00;101496.13;5197074;28;20057;-68
2023/07/14 05:29:02;;;;;;;14.13;6.07;;;;;;;16.14;100.00;101503.06;5206746;28;20073;-69
2023/07/14 05:31:34;;;;;;;9.07;5.88;;;;;;;16.21;100.00;101515.00;5209014;28;20853;-69
2023/07/14 05:34:05;;;;;;;9.98;5.57;;;;;;;16.22;100.00;101507.75;5202497;28;20038;-69
2023/07/14 05:36:38;;;;;;;8.23;5.10;;;;;;;16.26;100.00;101510.06;5206090;28;20040;-68
2023/07/14 05:39:09;;;;;;;9.30;5.07;;;;;;;16.23;100.00;101507.63;5201010;28;20018;-69
2023/07/14 05:41:40;;;;;;;7.57;5.07;;;;;;;16.22;100.00;101497.88;5199393;28;20779;-69
2023/07/14 05:44:12;;;;;;;9.05;5.53;;;;;;;16.29;100.00;101500.00;5198513;28;20034;-68
2023/07/14 05:46:43;;;;;;;8.85;5.53;;;;;;;16.28;100.00;101496.47;5202995;28;20428;-68
2023/07/14 05:49:15;;;;;;;8.38;4.95;;;;;;;16.29;100.00;101492.75;5200485;28;20060;-69
2023/07/14 05:51:47;;;;;;;9.60;5.30;;;;;;;16.35;100.00;101500.28;5201872;28;20045;-68
2023/07/14 05:54:20;;;;;;;8.60;5.20;;;;;;;16.36;100.00;101493.06;5199751;28;20030;-69
2023/07/14 05:56:52;;;;;;;6.80;4.90;;;;;;;16.35;100.00;101494.91;5201366;28;20033;-69
2023/07/14 05:59:23;;;;;;;7.97;5.05;;;;;;;16.38;100.00;101491.09;5200771;28;20037;-68
2023/07/14 06:01:55;;;;;;;10.13;5.20;;;;;;;16.37;100.00;101494.75;5198858;28;20510;-69
2023/07/14 06:04:26;;;;;;;11.80;5.43;;;;;;;16.39;100.00;101499.00;5198066;28;20473;-68
2023/07/14 06:06:58;;;;;;;7.50;4.55;;;;;;;16.53;100.00;101497.78;5197225;28;20109;-69
2023/07/14 06:09:34;;;;;;;9.32;5.18;;;;;;;16.66;100.00;101497.47;5197746;28;20120;-69
2023/07/14 06:12:08;;;;;;;8.35;4.97;;;;;;;16.63;100.00;101495.09;5198073;28;20022;-69
2023/07/14 06:14:40;;;;;;;11.93;5.70;;;;;;;16.67;100.00;101496.50;5199735;28;20103;-68
2023/07/14 06:17:13;;;;;;;10.15;4.70;;;;;;;16.73;100.00;101497.78;5201495;28;20498;-69
2023/07/14 06:19:44;;;;;;;8.07;4.30;;;;;;;16.73;100.00;101495.09;5206486;28;20030;-69
2023/07/14 06:22:16;;;;;;;7.85;4.97;;;;;;;16.83;100.00;101491.41;5203034;28;20026;-69
2023/07/14 06:24:51;;;;;;;8.18;4.70;;;;;;;16.90;100.00;101493.56;5206815;28;20417;-69
2023/07/14 06:27:24;;;;;;;7.68;5.03;;;;;;;16.94;100.00;101495.81;5205550;28;20029;-69
2023/07/14 06:29:55;;;;;;;9.10;4.97;;;;;;;17.07;100.00;101492.81;5208970;28;20057;-69
2023/07/14 06:32:26;;;;;;;8.30;4.70;;;;;;;17.19;100.00;101493.50;5203724;28;20022;-68
2023/07/14 06:34:58;;;;;;;9.60;5.40;;;;;;;17.29;100.00;101497.03;5207558;28;20412;-69
2023/07/14 06:37:29;;;;;;;10.13;5.30;;;;;;;17.36;100.00;101495.47;5202685;28;20033;-70
2023/07/14 06:40:01;;;;;;;9.50;5.05;;;;;;;17.39;100.00;101491.59;5204394;28;20029;-70
2023/07/14 06:42:33;;;;;;;10.73;5.05;;;;;;;17.44;100.00;101489.34;5200370;28;20113;-69
2023/07/14 06:45:05;;;;;;;8.45;4.85;;;;;;;17.57;100.00;101489.84;5207375;28;20033;-69
2023/07/14 06:47:36;;;;;;;7.93;4.55;;;;;;;17.63;100.00;101480.31;5205578;28;20034;-69
2023/07/14 06:50:08;;;;;;;8.23;4.03;;;;;;;17.67;100.00;101481.72;5204858;28;20068;-69
2023/07/14 06:52:39;;;;;;;10.10;4.43;;;;;;;17.83;100.00;101478.38;5205865;28;20589;-69
2023/07/14 06:55:11;;;;;;;9.50;4.93;;;;;;;17.94;100.00;101480.91;5208222;28;20392;-69
2023/07/14 06:57:42;;;;;;;10.05;4.10;;;;;;;18.13;100.00;101471.84;5203469;28;20026;-69
2023/07/14 07:00:15;;;;;;;9.27;4.05;;;;;;;18.24;100.00;101468.09;5203761;28;20062;-69
2023/07/14 07:02:46;;;;;;;7.95;3.58;;;;;;;18.28;100.00;101463.25;5204632;28;20041;-70
2023/07/14 07:05:18;;;;;;;8.38;3.40;;;;;;;18.39;100.00;101458.47;5202867;28;20030;-69
2023/07/14 07:07:50;;;;;;;6.07;3.17;;;;;;;18.42;100.00;101468.09;5201587;28;20408;-69
2023/07/14 07:10:22;;;;;;;5.88;3.20;;;;;;;18.37;100.00;101452.38;5200608;28;20038;-69
2023/07/14 07:12:53;;;;;;;6.78;3.40;;;;;;;18.38;100.00;101448.66;5198599;28;20522;-69
2023/07/14 07:15:25;;;;;;;4.88;3.08;;;;;;;18.44;100.00;101451.75;5195078;28;20065;-69
2023/07/14 07:17:56;;;;;;;6.43;3.30;;;;;;;18.48;100.00;101445.88;5199695;28;20026;-69
2023/07/14 07:20:28;;;;;;;11.63;3.20;;;;;;;18.51;100.00;101440.16;5204010;28;20053;-69
2023/07/14 07:22:59;;;;;;;5.15;2.72;;;;;;;18.47;100.00;101438.78;5193153;28;20488;-69
2023/07/14 07:25:31;;;;;;;5.72;2.90;;;;;;;18.61;100.00;101440.94;5200518;28;20559;-69
2023/07/14 07:28:03;;;;;;;7.80;2.90;;;;;;;18.64;100.00;101439.78;5200242;28;20026;-69
2023/07/14 07:30:35;;;;;;;7.35;3.47;;;;;;;18.61;100.00;101437.38;5200632;28;20045;-69
2023/07/14 07:33:07;;;;;;;4.97;2.55;;;;;;;18.70;100.00;101436.44;5199784;28;20022;-70
2023/07/14 07:35:41;;;;;;;6.95;2.90;;;;;;;18.72;100.00;101441.72;5197581;28;20026;-69
2023/07/14 07:38:13;;;;;;;6.80;2.83;;;;;;;18.70;100.00;101443.72;5200799;28;20030;-69
2023/07/14 07:40:45;;;;;;;4.80;2.47;;;;;;;18.73;100.00;101436.13;5205490;28;20431;-69
2023/07/14 07:43:17;;;;;;;4.72;2.63;;;;;;;18.74;100.00;101435.13;5198338;28;20139;-69
2023/07/14 07:45:49;;;;;;;6.15;2.78;;;;;;;18.85;100.00;101434.06;5199558;28;20029;-69
2023/07/14 07:48:20;;;;;;;5.25;2.50;;;;;;;18.95;100.00;101434.81;5197532;28;20121;-70
2023/07/14 07:50:51;;;;;;;6.38;2.60;;;;;;;18.97;100.00;101427.41;5195575;28;20032;-69
2023/07/14 07:53:23;;;;;;;6.53;2.72;;;;;;;19.04;100.00;101429.47;5195507;28;21743;-69
2023/07/14 07:55:56;;;;;;;5.28;2.70;;;;;;;19.07;100.00;101434.56;5203155;28;20543;-69
2023/07/14 07:58:29;;;;;;;4.80;2.45;;;;;;;19.18;100.00;101428.88;5200668;28;20030;-69
2023/07/14 08:01:02;;;;;;;4.78;2.53;;;;;;;19.26;100.00;101423.53;5205379;28;20033;-69
2023/07/14 08:03:35;;;;;;;7.75;2.80;;;;;;;19.24;100.00;101420.13;5203193;28;20596;-70
2023/07/14 08:06:06;;;;;;;4.78;2.60;;;;;;;19.39;100.00;101423.09;5204429;28;20038;-70
2023/07/14 08:08:38;;;;;;;6.88;2.58;;;;;;;19.37;100.00;101414.28;5204506;28;20728;-70
2023/07/14 08:11:11;;;;;;;4.50;2.17;;;;;;;19.47;100.00;101415.00;5203088;28;20061;-70
2023/07/14 08:13:43;;;;;;;4.43;2.25;;;;;;;19.45;100.00;101417.03;5199059;28;20049;-69
2023/07/14 08:16:14;;;;;;;4.28;2.10;;;;;;;19.45;100.00;101416.19;5203591;28;20062;-70
2023/07/14 08:18:46;;;;;;;5.13;2.25;;;;;;;19.41;100.00;101415.66;5210123;28;20028;-70
2023/07/14 08:21:17;;;;;;;4.68;1.80;;;;;;;19.36;100.00;101416.13;5209756;28;20026;-70
2023/07/14 08:23:49;;;;;;;6.05;2.20;;;;;;;19.40;100.00;101412.06;5203806;28;20647;-70
2023/07/14 08:26:20;;;;;;;5.38;2.70;;;;;;;19.48;100.00;101413.97;5198269;28;20034;-69
2023/07/14 08:28:52;;;;;;;5.80;2.40;;;;;;;19.45;100.00;101411.63;5198106;28;20042;-70
2023/07/14 08:31:23;;;;;;;6.13;2.60;;;;;;;19.50;100.00;101409.28;5196512;28;20018;-69
2023/07/14 08:33:56;;;;;;;5.93;2.60;;;;;;;19.54;100.00;101412.47;5202018;28;20026;-69
2023/07/14 08:36:27;;;;;;;5.47;2.67;;;;;;;19.59;100.00;101413.69;5211240;28;20037;-69
2023/07/14 08:38:58;;;;;;;4.75;2.20;;;;;;;19.77;100.00;101408.22;5210800;28;20025;-69
2023/07/14 08:41:35;;;;;;;5.07;2.28;;;;;;;20.05;100.00;101413.38;5202498;28;20572;-69
2023/07/14 08:44:28;;;;;;;4.20;1.95;;;;;;;20.16;100.00;101412.22;5204923;28;20041;-69
2023/07/14 08:47:18;;;;;;;4.55;2.15;;;;;;;20.35;100.00;101406.50;5205242;28;20041;-69
2023/07/14 08:49:56;;;;;;;4.50;2.00;;;;;;;20.38;100.00;101408.00;5203655;28;20066;-69
2023/07/14 08:52:32;;;;;;;6.97;2.10;;;;;;;20.42;100.00;101400.38;5205921;28;20030;-69
2023/07/14 08:55:12;;;;;;;4.47;2.20;;;;;;;20.43;100.00;101394.81;5206641;28;20034;-70
2023/07/14 08:58:05;;;;;;;4.82;2.03;;;;;;;20.48;100.00;101400.56;5210640;28;20030;-70
2023/07/14 09:00:43;;;;;;;4.72;2.28;;;;;;;20.52;100.00;101393.78;5209457;28;20033;-70
2023/07/14 09:03:24;;;;;;;5.22;2.30;;;;;;;20.61;100.00;101389.22;5205464;28;20030;-68
2023/07/14 09:06:01;;;;;;;5.50;2.10;;;;;;;20.81;100.00;101376.19;5213093;28;20079;-69
2023/07/14 09:08:33;;;;;;;4.38;2.03;;;;;;;20.86;100.00;101383.78;5213819;28;20129;-69
2023/07/14 09:11:23;;;;;;;6.20;2.50;;;;;;;21.10;100.00;101391.03;5214410;28;20056;-69
2023/07/14 09:14:12;;;;;;;4.53;2.30;;;;;;;21.28;100.00;101388.09;5198561;28;20026;-69
2023/07/14 09:16:58;;;;;;;8.15;2.25;;;;;;;21.37;100.00;101375.34;5204331;28;20041;-70
2023/07/14 09:19:54;;;;;;;5.47;2.38;;;;;;;21.60;100.00;101375.47;5213194;28;20030;-69
2023/07/14 09:22:39;;;;;;;5.75;2.53;;;;;;;21.71;100.00;101369.63;5207779;28;20034;-70
2023/07/14 09:25:27;;;;;;;5.43;2.50;;;;;;;21.72;100.00;101363.16;5203411;28;20916;-69
2023/07/14 09:28:00;;;;;;;6.15;2.10;;;;;;;21.77;100.00;101365.38;5207099;28;20029;-69
2023/07/14 09:30:34;;;;;;;5.07;2.20;;;;;;;21.90;100.00;101365.63;5207543;28;20030;-70
2023/07/14 09:33:13;;;;;;;5.65;2.05;;;;;;;21.93;100.00;101354.38;5213353;28;20029;-69
2023/07/14 09:35:46;;;;;;;4.97;2.25;;;;;;;22.06;100.00;101354.63;5200669;28;20054;-69
2023/07/14 09:38:26;;;;;;;5.50;2.15;;;;;;;22.34;100.00;101356.84;5208791;28;20034;-69
2023/07/14 09:40:59;;;;;;;5.00;2.20;;;;;;;22.48;100.00;101352.47;5208920;28;20038;-69
2023/07/14 09:43:30;;;;;;;5.57;2.08;;;;;;;22.67;100.00;101351.13;5206337;28;20445;-70
2023/07/14 09:46:02;;;;;;;4.88;2.33;;;;;;;22.82;100.00;101343.81;5206895;28;20033;-68
2023/07/14 09:48:38;;;;;;;4.68;1.90;;;;;;;22.64;100.00;101336.00;5200898;28;20030;-69
2023/07/14 09:51:15;;;;;;;4.10;2.20;;;;;;;22.64;100.00;101346.03;5200620;28;20189;-69
2023/07/14 09:54:09;;;;;;;5.78;2.25;;;;;;;22.65;100.00;101336.84;5196660;28;20030;-70
2023/07/14 09:56:44;;;;;;;4.50;1.95;;;;;;;22.71;100.00;101331.50;5206214;28;20413;-69
2023/07/14 09:59:21;;;;;;;5.22;2.13;;;;;;;22.67;100.00;101334.78;5206840;28;20104;-69
2023/07/14 10:02:02;;;;;;;6.03;2.20;;;;;;;22.65;100.00;101331.41;5209319;28;20029;-69
2023/07/14 10:04:36;;;;;;;5.20;2.15;;;;;;;22.52;100.00;101330.16;5207063;28;20038;-70
2023/07/14 10:07:32;;;;;;;4.97;2.40;;;;;;;22.71;100.00;101325.22;5202454;28;20053;-69
2023/07/14 10:10:08;;;;;;;6.65;2.30;;;;;;;22.75;100.00;101315.66;5197646;28;20973;-69
2023/07/14 10:12:46;;;;;;;5.43;2.10;;;;;;;22.64;100.00;101313.41;5202119;28;20062;-69
2023/07/14 10:15:35;;;;;;;5.68;2.40;;;;;;;22.79;100.00;101302.53;5205948;28;20117;-70
2023/07/14 10:18:15;;;;;;;5.78;2.13;;;;;;;22.83;100.00;101295.69;5209794;28;20033;-70
2023/07/14 10:21:06;;;;;;;4.90;2.00;;;;;;;22.92;100.00;101293.72;5202056;28;20044;-69
2023/07/14 10:23:37;;;;;;;5.43;2.22;;;;;;;22.94;100.00;101286.22;5201437;28;20104;-70
2023/07/14 10:26:10;;;;;;;3.90;1.90;;;;;;;23.07;100.00;101289.16;5202813;28;20113;-69
2023/07/14 10:28:47;;;;;;;5.22;2.00;;;;;;;23.18;100.00;101285.09;5211601;28;20040;-69
2023/07/14 10:31:29;;;;;;;5.50;1.90;;;;;;;23.23;100.00;101275.31;5204394;28;20037;-69
2023/07/14 10:34:22;;;;;;;4.03;2.03;;;;;;;23.33;100.00;101266.84;5200129;28;20279;-69
2023/07/14 10:36:59;;;;;;;5.15;2.30;;;;;;;23.47;100.00;101271.44;5204986;28;20401;-69
2023/07/14 10:39:43;;;;;;;5.18;1.85;;;;;;;23.60;100.00;101262.53;5206743;28;20727;-69
2023/07/14 10:42:22;;;;;;;5.78;2.10;;;;;;;23.80;100.00;101259.22;5207561;28;20028;-69
2023/07/14 10:44:54;;;;;;;4.07;1.73;;;;;;;23.83;100.00;101258.81;5209960;28;20333;-69
2023/07/14 10:47:45;;;;;;;4.53;1.85;;;;;;;24.00;100.00;101251.22;5204773;28;20384;-69
2023/07/14 10:50:20;;;;;;;4.45;1.70;;;;;;;23.79;100.00;101249.34;5204535;28;20034;-69
2023/07/14 10:53:13;;;;;;;4.28;1.80;;;;;;;23.98;100.00;101253.31;5206664;28;20033;-70
2023/07/14 10:55:48;;;;;;;5.43;2.00;;;;;;;23.89;100.00;101241.69;5197468;28;20041;-69
2023/07/14 10:58:35;;;;;;;6.30;1.92;;;;;;;23.94;100.00;101249.28;5203239;28;20030;-69
2023/07/14 11:01:32;;;;;;;5.20;2.05;;;;;;;23.99;100.00;101258.56;5205365;28;20113;-69
2023/07/14 11:04:25;;;;;;;4.72;1.90;;;;;;;23.96;100.00;101252.66;5200506;28;20339;-69
2023/07/14 11:06:57;;;;;;;4.20;1.83;;;;;;;23.81;100.00;101230.91;5203012;28;20507;-69
2023/07/14 11:09:29;;;;;;;4.47;1.95;;;;;;;23.82;100.00;101224.44;5199205;28;20077;-69
2023/07/14 11:12:22;;;;;;;5.55;2.10;;;;;;;24.01;100.00;101231.09;5197815;28;20066;-69
2023/07/14 11:15:12;;;;;;;3.75;1.73;;;;;;;24.09;100.00;101224.69;5202955;28;20559;-69
2023/07/14 11:18:06;;;;;;;4.80;1.77;;;;;;;24.09;100.00;101198.25;5204388;28;20038;-70
2023/07/14 11:20:49;;;;;;;4.50;2.25;;;;;;;24.16;100.00;101201.88;5196730;28;20034;-69
2023/07/14 11:23:33;;;;;;;4.13;2.22;;;;;;;24.07;100.00;101195.72;5201939;28;20126;-69
2023/07/14 11:26:31;;;;;;;4.25;2.05;;;;;;;24.21;100.00;101196.66;5204165;28;20113;-69
2023/07/14 11:29:10;;;;;;;4.47;1.92;;;;;;;24.10;100.00;101193.63;5203568;28;20042;-69
2023/07/14 11:31:51;;;;;;;4.35;2.10;;;;;;;24.31;100.00;101193.56;5207202;28;20468;-70
2023/07/14 11:34:43;;;;;;;4.05;2.17;;;;;;;24.31;100.00;101200.91;5198909;28;20025;-69
2023/07/14 11:37:39;;;;;;;4.03;1.70;;;;;;;24.36;100.00;101192.97;5206439;28;20366;-68
2023/07/14 11:40:19;;;;;;;4.18;1.98;;;;;;;24.29;100.00;101186.63;5196507;28;20125;-69
2023/07/14 11:43:00;;;;;;;3.65;2.00;;;;;;;24.35;100.00;101183.09;5200537;28;20675;-70
2023/07/14 11:45:33;;;;;;;6.00;2.08;;;;;;;24.41;100.00;101179.56;5199841;28;20165;-69
2023/07/14 11:48:06;;;;;;;5.82;2.13;;;;;;;24.51;100.00;101173.75;5206604;28;20033;-69
2023/07/14 11:50:37;;;;;;;5.40;2.03;;;;;;;24.66;100.00;101174.47;5204865;28;20053;-69